Time;durP1;ratioP1;P1;durP2;ratioP2;P2;SDS_P1;SDS_P2;PMS_P1;PMS_P2;Temp;Humidity;BMP_temperature;BMP_pressure;BME280_temperature;BME280_humidity;BME280_pressure;Samples;Min_cycle;Max_cycle;Signal;HPM_P1;HPM_P2
2023/06/23 00:00:30;;;;;;;15.10;13.77;;;;;;;19.61;90.67;93192.31;5069611;28;20223;-76
2023/06/23 00:02:56;;;;;;;15.43;14.03;;;;;;;19.54;91.61;93202.66;5070354;28;20213;-77
2023/06/23 00:05:23;;;;;;;15.70;14.30;;;;;;;19.61;91.14;93194.97;5063099;28;20216;-75
2023/06/23 00:07:49;;;;;;;15.00;13.50;;;;;;;19.52;91.02;93183.66;5077255;28;20188;-76
2023/06/23 00:10:14;;;;;;;16.37;14.63;;;;;;;19.68;90.77;93197.91;5071200;28;20234;-76
2023/06/23 00:12:43;;;;;;;14.63;13.43;;;;;;;19.69;90.33;93199.47;5068805;28;20180;-76
2023/06/23 00:15:12;;;;;;;15.73;14.23;;;;;;;19.83;90.49;93210.59;5069818;28;20233;-76
2023/06/23 00:17:39;;;;;;;15.97;14.37;;;;;;;19.75;91.13;93203.47;5069873;28;20183;-77
2023/06/23 00:20:15;;;;;;;16.27;14.70;;;;;;;19.64;91.69;93204.97;5068942;28;20262;-76
2023/06/23 00:22:43;;;;;;;16.43;14.70;;;;;;;19.54;92.24;93192.06;5069879;28;20230;-75
2023/06/23 00:25:12;;;;;;;16.27;14.80;;;;;;;19.53;92.62;93182.56;5068911;28;20241;-75
2023/06/23 00:27:42;;;;;;;16.93;15.13;;;;;;;19.59;92.22;93197.19;5069300;28;20190;-76
2023/06/23 00:30:08;;;;;;;15.70;14.10;;;;;;;19.55;92.70;93198.91;5069088;28;20242;-77
2023/06/23 00:32:34;;;;;;;16.63;15.03;;;;;;;19.38;93.23;93180.44;5073081;28;20192;-76
2023/06/23 00:34:59;;;;;;;16.53;15.00;;;;;;;19.48;93.70;93201.28;5064895;28;20251;-76
2023/06/23 00:37:25;;;;;;;15.70;14.20;;;;;;;19.43;93.26;93192.72;5075230;28;20218;-76
2023/06/23 00:39:50;;;;;;;16.83;15.33;;;;;;;19.42;93.75;93197.25;5073332;28;20210;-76
2023/06/23 00:42:16;;;;;;;16.87;14.87;;;;;;;19.40;93.24;93188.06;5055139;28;20219;-76
2023/06/23 00:44:41;;;;;;;16.20;14.80;;;;;;;19.46;93.01;93187.56;5072295;28;20230;-75
2023/06/23 00:47:08;;;;;;;15.33;14.00;;;;;;;19.47;93.45;93191.75;5072774;28;20195;-76
2023/06/23 00:49:35;;;;;;;17.40;15.03;;;;;;;19.27;93.20;93168.63;5072611;28;20274;-76
2023/06/23 00:52:04;;;;;;;16.37;14.70;;;;;;;19.41;93.84;93190.41;5073044;28;20193;-76
2023/06/23 00:54:32;;;;;;;17.30;15.47;;;;;;;19.26;94.44;93182.16;5073843;28;20223;-76
2023/06/23 00:56:58;;;;;;;18.80;15.43;;;;;;;19.23;94.84;93173.00;5073986;28;20947;-76
2023/06/23 00:59:28;;;;;;;16.70;15.10;;;;;;;19.21;95.81;93179.72;5073027;28;20234;-76
2023/06/23 01:01:57;;;;;;;19.43;16.20;;;;;;;19.22;96.04;93182.06;5074019;28;20209;-76
2023/06/23 01:04:22;;;;;;;20.23;15.97;;;;;;;19.01;96.09;93154.69;5073916;28;20234;-76
2023/06/23 01:07:11;;;;;;;17.53;15.60;;;;;;;19.30;95.11;93172.53;5073871;28;20178;-77
2023/06/23 01:09:42;;;;;;;16.70;15.07;;;;;;;19.27;95.44;93184.50;5061999;28;20231;-77
2023/06/23 01:12:13;;;;;;;18.30;15.47;;;;;;;19.29;95.30;93187.66;5081209;28;20232;-76
2023/06/23 01:15:11;;;;;;;17.53;15.73;;;;;;;19.41;94.47;93190.41;5073441;28;20235;-77
2023/06/23 01:17:44;;;;;;;20.10;16.40;;;;;;;19.23;94.61;93165.06;5054459;28;20197;-75
2023/06/23 01:20:22;;;;;;;17.77;16.03;;;;;;;19.29;94.49;93171.75;5072603;28;20226;-77
2023/06/23 01:23:22;;;;;;;16.73;15.13;;;;;;;19.41;94.93;93187.75;5072801;28;20275;-77
2023/06/23 01:26:09;;;;;;;17.47;15.90;;;;;;;19.45;94.95;93190.53;5073201;28;20214;-77
2023/06/23 01:29:07;;;;;;;16.43;14.93;;;;;;;19.39;94.72;93171.41;5100668;28;20190;-77
2023/06/23 01:31:44;;;;;;;16.80;15.27;;;;;;;19.48;94.16;93185.38;5061511;28;20204;-76
2023/06/23 01:34:21;;;;;;;15.63;14.13;;;;;;;19.41;94.33;93163.91;5071472;28;20179;-77
2023/06/23 01:36:52;;;;;;;15.97;14.33;;;;;;;19.62;93.66;93174.56;5066198;28;20171;-77
2023/06/23 01:39:20;;;;;;;18.43;16.57;;;;;;;19.65;93.77;93179.22;5072398;28;20189;-77
2023/06/23 01:41:52;;;;;;;18.03;15.30;;;;;;;19.40;93.14;93156.28;5073183;28;20274;-75
2023/06/23 01:44:22;;;;;;;16.10;14.60;;;;;;;19.45;95.69;93186.03;5070163;28;20182;-77
2023/06/23 01:46:56;;;;;;;17.30;15.37;;;;;;;19.30;95.84;93160.06;5051953;28;20191;-77
2023/06/23 01:49:27;;;;;;;16.93;15.43;;;;;;;19.38;95.22;93175.16;5067149;28;20259;-76
2023/06/23 01:51:54;;;;;;;17.90;15.80;;;;;;;19.19;95.95;93156.97;5087354;28;20171;-77
2023/06/23 01:54:22;;;;;;;17.00;15.23;;;;;;;19.31;95.90;93179.38;5085288;28;20185;-77
2023/06/23 01:56:49;;;;;;;18.37;16.43;;;;;;;19.22;96.44;93175.97;5073141;28;20243;-77
2023/06/23 01:59:17;;;;;;;18.27;16.57;;;;;;;19.24;96.83;93179.84;5054424;28;20192;-76
2023/06/23 02:01:45;;;;;;;18.50;16.77;;;;;;;19.21;97.33;93177.06;5072871;28;20289;-76
2023/06/23 02:04:12;;;;;;;19.93;16.43;;;;;;;19.29;96.41;93187.66;5073550;28;20216;-77
2023/06/23 02:06:39;;;;;;;17.00;15.43;;;;;;;19.19;96.28;93177.38;5071654;28;20191;-76
2023/06/23 02:09:09;;;;;;;19.97;17.17;;;;;;;19.31;95.83;93188.13;5070811;28;20186;-77
2023/06/23 02:11:36;;;;;;;18.53;16.80;;;;;;;19.26;95.69;93188.25;5066687;28;20273;-76
2023/06/23 02:14:02;;;;;;;17.37;15.67;;;;;;;19.21;96.43;93185.78;5072875;28;20179;-77
2023/06/23 02:16:30;;;;;;;18.07;16.17;;;;;;;19.08;96.78;93176.94;5071902;28;20263;-74
2023/06/23 02:18:57;;;;;;;15.27;13.97;;;;;;;19.02;97.13;93186.16;5071245;28;20186;-74
2023/06/23 02:21:24;;;;;;;17.43;15.83;;;;;;;19.09;96.41;93181.16;5070450;28;20221;-71
2023/06/23 02:23:51;;;;;;;18.30;16.47;;;;;;;18.97;97.43;93181.00;5072048;28;20200;-73
2023/06/23 02:26:17;;;;;;;18.90;17.10;;;;;;;18.94;97.84;93178.25;5070660;28;20251;-73
2023/06/23 02:28:49;;;;;;;18.73;16.83;;;;;;;18.94;97.75;93175.59;5072664;28;20205;-73
2023/06/23 02:31:18;;;;;;;18.77;16.97;;;;;;;18.87;97.62;93167.34;5071271;28;20293;-73
2023/06/23 02:33:44;;;;;;;18.07;16.37;;;;;;;18.91;97.79;93170.94;5070431;28;20214;-74
2023/06/23 02:36:11;;;;;;;19.50;17.13;;;;;;;18.83;98.09;93159.25;5088435;28;21298;-74
2023/06/23 02:38:38;;;;;;;18.33;16.57;;;;;;;18.77;98.48;93162.41;5073811;28;20280;-76
2023/06/23 02:41:07;;;;;;;19.87;17.83;;;;;;;18.97;98.36;93180.25;5072897;28;20217;-75
2023/06/23 02:43:37;;;;;;;19.37;17.37;;;;;;;18.95;98.55;93185.06;5073444;28;20194;-74
2023/06/23 02:46:05;;;;;;;19.73;17.90;;;;;;;18.86;99.35;93181.69;5075861;28;20230;-75
2023/06/23 02:48:35;;;;;;;22.13;17.57;;;;;;;18.98;99.00;93177.28;5065946;28;20190;-76
2023/06/23 02:51:02;;;;;;;19.27;15.97;;;;;;;18.87;98.22;93156.75;5078354;28;20222;-76
2023/06/23 02:53:33;;;;;;;18.73;16.93;;;;;;;19.05;98.02;93185.50;5073873;28;20191;-76
2023/06/23 02:56:16;;;;;;;16.80;15.37;;;;;;;19.04;97.66;93167.31;5073124;28;20216;-76
2023/06/23 02:58:46;;;;;;;18.37;16.50;;;;;;;19.02;98.73;93182.72;5072708;28;20202;-75
2023/06/23 03:01:14;;;;;;;19.27;17.30;;;;;;;19.15;97.95;93177.25;5071024;28;20230;-76
2023/06/23 03:03:41;;;;;;;18.83;17.00;;;;;;;19.08;97.57;93166.34;5078990;28;20225;-75
2023/06/23 03:06:17;;;;;;;19.10;17.10;;;;;;;19.23;97.22;93166.91;5072960;28;20280;-75
2023/06/23 03:08:43;;;;;;;18.93;17.30;;;;;;;19.40;96.49;93170.31;5094932;28;20177;-75
2023/06/23 03:11:08;;;;;;;18.67;16.77;;;;;;;19.38;96.12;93156.59;5073470;28;20228;-76
2023/06/23 03:13:34;;;;;;;18.27;16.50;;;;;;;19.53;95.77;93169.31;5076515;28;20216;-79
2023/06/23 03:16:03;;;;;;;18.17;16.57;;;;;;;19.55;95.36;93158.41;5069692;28;20281;-75
2023/06/23 03:18:34;;;;;;;18.67;16.83;;;;;;;19.65;95.26;93177.34;5076900;28;20176;-75
2023/06/23 03:21:03;;;;;;;21.73;17.03;;;;;;;19.66;94.76;93165.66;5070891;28;20223;-75
2023/06/23 03:23:32;;;;;;;18.83;17.00;;;;;;;19.63;94.21;93154.91;5071555;28;20176;-76
2023/06/23 03:26:01;;;;;;;18.20;16.37;;;;;;;19.98;93.53;93177.47;5070073;28;20236;-76
2023/06/23 03:28:29;;;;;;;16.60;15.10;;;;;;;20.09;92.42;93160.88;5070179;28;20208;-76
2023/06/23 03:31:00;;;;;;;18.27;16.37;;;;;;;20.34;91.37;93170.53;5069755;28;20223;-75
2023/06/23 03:33:36;;;;;;;17.50;15.90;;;;;;;20.69;89.60;93186.91;5069887;28;20219;-76
2023/06/23 03:36:07;;;;;;;17.20;15.67;;;;;;;20.86;88.78;93191.31;5069388;28;20220;-73
2023/06/23 03:38:37;;;;;;;16.83;14.80;;;;;;;21.02;87.61;93184.28;5069999;28;20198;-74
2023/06/23 03:41:08;;;;;;;17.93;15.73;;;;;;;21.07;87.48;93186.75;5068306;28;20231;-74
2023/06/23 03:43:50;;;;;;;17.52;16.02;;;;;;;20.97;87.73;93179.97;5070748;28;20195;-71
2023/06/23 03:46:44;;;;;;;19.00;17.07;;;;;;;20.98;88.69;93186.81;5068175;28;20212;-71
2023/06/23 03:49:12;;;;;;;18.97;17.13;;;;;;;21.16;87.41;93187.41;5066966;28;20183;-71
2023/06/23 03:51:41;;;;;;;19.70;17.50;;;;;;;21.34;86.58;93194.13;5074934;28;20187;-70
2023/06/23 03:54:08;;;;;;;19.17;16.37;;;;;;;21.20;86.78;93177.72;5069135;28;20184;-71
2023/06/23 03:56:36;;;;;;;19.85;15.65;;;;;;;21.60;85.66;93197.22;5067835;28;20189;-70
2023/06/23 03:59:05;;;;;;;18.33;16.42;;;;;;;21.74;85.13;93190.47;5068132;28;20535;-71
2023/06/23 04:01:32;;;;;;;16.45;15.00;;;;;;;22.03;83.36;93181.50;5068449;28;20231;-69
2023/06/23 04:03:58;;;;;;;17.67;15.93;;;;;;;22.14;83.30;93183.38;5060709;28;20200;-68
2023/06/23 04:06:29;;;;;;;17.42;15.73;;;;;;;22.17;82.42;93181.94;5078114;28;20295;-72
2023/06/23 04:08:55;;;;;;;21.63;16.65;;;;;;;22.59;81.01;93204.47;5072487;28;20250;-70
2023/06/23 04:11:22;;;;;;;18.70;16.73;;;;;;;22.58;80.02;93186.97;5072047;28;20251;-69
2023/06/23 04:13:50;;;;;;;19.33;17.05;;;;;;;22.91;78.31;93200.78;5072961;28;20188;-71
2023/06/23 04:16:17;;;;;;;19.77;17.42;;;;;;;22.60;80.33;93200.69;5071790;28;20297;-72
2023/06/23 04:18:45;;;;;;;20.77;18.08;;;;;;;22.75;79.36;93205.31;5071875;28;20270;-70
2023/06/23 04:21:13;;;;;;;19.90;17.20;;;;;;;22.89;78.86;93212.91;5071964;28;20240;-71
2023/06/23 04:23:40;;;;;;;19.50;17.40;;;;;;;22.61;81.09;93202.25;5072756;28;20188;-71
2023/06/23 04:26:08;;;;;;;25.13;18.35;;;;;;;23.01;79.73;93210.97;5072230;28;20296;-72
2023/06/23 04:28:35;;;;;;;23.80;18.63;;;;;;;22.99;79.01;93221.19;5073071;28;20196;-69
2023/06/23 04:31:08;;;;;;;21.52;17.92;;;;;;;23.11;78.73;93225.69;5067469;28;20248;-78
2023/06/23 04:33:35;;;;;;;23.15;18.67;;;;;;;23.41;78.47;93225.00;5078880;28;20182;-75
2023/06/23 04:36:14;;;;;;;19.20;17.13;;;;;;;26.11;67.80;93235.25;5079960;28;20234;-76
2023/06/23 04:39:30;;;;;;;22.00;19.20;;;;;;;25.76;66.67;93233.91;5075333;28;20255;-76
2023/06/23 04:42:00;;;;;;;20.83;17.58;;;;;;;24.69;70.45;93213.50;5061015;28;20250;-75
2023/06/23 04:44:28;;;;;;;21.70;19.50;;;;;;;24.17;73.36;93221.91;5075045;28;20233;-76
2023/06/23 04:46:59;;;;;;;20.83;18.40;;;;;;;24.26;74.33;93216.38;5062107;28;20194;-77
2023/06/23 04:49:28;;;;;;;21.67;19.13;;;;;;;23.77;75.28;93200.75;5079435;28;20299;-76
2023/06/23 04:51:56;;;;;;;24.38;19.63;;;;;;;23.88;75.94;93219.66;5074406;28;20190;-76
2023/06/23 04:54:26;;;;;;;24.80;19.98;;;;;;;23.56;77.52;93202.88;5073366;28;20253;-76
2023/06/23 04:57:01;;;;;;;25.67;20.95;;;;;;;23.09;81.49;93214.59;5076524;28;20262;-75
2023/06/23 04:59:32;;;;;;;23.27;20.48;;;;;;;23.46;79.49;93203.41;5072596;28;20232;-76
2023/06/23 05:01:59;;;;;;;26.58;20.65;;;;;;;23.65;77.88;93222.19;5078143;28;20195;-76
2023/06/23 05:04:26;;;;;;;29.48;21.25;;;;;;;23.07;81.02;93214.94;5076681;28;20224;-76
2023/06/23 05:06:53;;;;;;;26.05;19.80;;;;;;;24.27;76.37;93223.25;5079238;28;20171;-75
2023/06/23 05:09:20;;;;;;;25.73;20.23;;;;;;;25.09;72.56;93227.31;5074114;28;20221;-75
2023/06/23 05:11:48;;;;;;;26.20;20.73;;;;;;;24.72;72.97;93218.16;5075889;28;20187;-76
2023/06/23 05:14:16;;;;;;;22.98;19.77;;;;;;;23.88;76.74;93229.56;5074020;28;20252;-76
2023/06/23 05:16:43;;;;;;;22.27;19.95;;;;;;;25.77;70.26;93209.47;5074466;28;20199;-76
2023/06/23 05:19:11;;;;;;;26.42;19.65;;;;;;;28.39;60.50;93242.50;5073217;28;20224;-75
2023/06/23 05:21:37;;;;;;;25.10;19.95;;;;;;;27.60;61.47;93238.72;5085468;28;20241;-76
2023/06/23 05:24:08;;;;;;;22.08;18.83;;;;;;;27.09;63.20;93224.34;5072845;28;20188;-77
2023/06/23 05:26:35;;;;;;;22.25;19.23;;;;;;;26.06;66.91;93248.16;5071834;28;20185;-75
2023/06/23 05:29:04;;;;;;;27.75;19.45;;;;;;;25.49;67.87;93234.94;5072242;28;20169;-75
2023/06/23 05:31:31;;;;;;;26.75;20.40;;;;;;;25.41;69.56;93243.97;5072350;28;20212;-76
2023/06/23 05:33:57;;;;;;;22.67;19.30;;;;;;;26.47;65.02;93241.91;5072256;28;20282;-76
2023/06/23 05:36:24;;;;;;;24.45;21.02;;;;;;;26.99;64.03;93230.38;5067244;28;20224;-76
2023/06/23 05:38:54;;;;;;;21.50;19.20;;;;;;;29.77;55.87;93271.66;5072629;28;20191;-76
2023/06/23 05:41:19;;;;;;;26.92;18.77;;;;;;;31.99;47.34;93272.03;5069759;28;20282;-76
2023/06/23 05:43:45;;;;;;;20.20;17.92;;;;;;;34.90;40.58;93281.44;5054890;28;20181;-76
2023/06/23 05:46:14;;;;;;;23.70;18.90;;;;;;;34.14;42.20;93276.81;5075423;28;20224;-76
2023/06/23 05:48:46;;;;;;;22.25;17.90;;;;;;;37.92;34.63;93297.06;5073473;28;20189;-75
2023/06/23 05:51:16;;;;;;;21.58;18.30;;;;;;;38.69;32.32;93288.50;5071494;28;20206;-77
2023/06/23 05:53:42;;;;;;;19.92;16.92;;;;;;;39.31;31.14;93292.28;5072316;28;20181;-76
2023/06/23 05:56:23;;;;;;;19.05;15.45;;;;;;;39.50;30.76;93291.25;5069909;28;20237;-76
2023/06/23 05:58:54;;;;;;;23.50;16.05;;;;;;;38.42;32.44;93283.47;5072264;28;20207;-76
2023/06/23 06:01:23;;;;;;;19.15;15.65;;;;;;;39.70;30.29;93302.63;5058764;28;20240;-76
2023/06/23 06:04:01;;;;;;;19.38;17.33;;;;;;;38.65;32.54;93298.00;5071896;28;20208;-77
2023/06/23 06:06:28;;;;;;;32.35;19.85;;;;;;;40.78;28.85;93307.97;5070959;28;21198;-77
2023/06/23 06:08:57;;;;;;;25.23;19.27;;;;;;;40.48;28.12;93312.25;5073795;28;20250;-77
2023/06/23 06:11:24;;;;;;;23.83;18.05;;;;;;;40.01;28.64;93292.53;5072320;28;20221;-77
2023/06/23 06:13:51;;;;;;;19.13;17.27;;;;;;;38.47;31.71;93290.34;5068217;28;20244;-76
2023/06/23 06:16:18;;;;;;;26.10;16.90;;;;;;;37.68;32.72;93295.81;5072095;28;20296;-77
2023/06/23 06:18:45;;;;;;;25.83;18.48;;;;;;;40.31;28.80;93305.50;5072861;28;20237;-77
2023/06/23 06:21:12;;;;;;;26.40;18.55;;;;;;;39.59;30.23;93305.00;5070617;28;20281;-77
2023/06/23 06:23:39;;;;;;;23.67;16.92;;;;;;;39.24;30.32;93295.28;5072066;28;20185;-76
2023/06/23 06:26:06;;;;;;;18.85;16.48;;;;;;;38.25;31.15;93292.97;5070438;28;20225;-76
2023/06/23 06:28:34;;;;;;;20.08;16.20;;;;;;;37.76;32.09;93280.75;5086580;28;20181;-76
2023/06/23 06:31:02;;;;;;;22.48;16.73;;;;;;;39.23;30.75;93299.19;5070510;28;20233;-77
2023/06/23 06:33:28;;;;;;;19.00;16.88;;;;;;;40.78;28.40;93286.06;5071036;28;20181;-77
2023/06/23 06:35:57;;;;;;;20.58;15.80;;;;;;;41.00;27.81;93287.44;5070272;28;20322;-76
2023/06/23 06:38:24;;;;;;;17.17;15.32;;;;;;;39.87;28.67;93284.84;5072335;28;20185;-76
2023/06/23 06:40:53;;;;;;;20.40;16.55;;;;;;;39.40;29.66;93284.94;5070354;28;20292;-76
2023/06/23 06:43:19;;;;;;;18.08;16.17;;;;;;;39.67;29.95;93276.97;5074065;28;20201;-76
2023/06/23 06:45:46;;;;;;;19.73;15.68;;;;;;;39.78;29.56;93279.28;5073219;28;20244;-77
2023/06/23 06:48:13;;;;;;;18.38;16.40;;;;;;;38.87;31.05;93274.28;5073522;28;20208;-76
2023/06/23 06:50:40;;;;;;;18.50;16.10;;;;;;;38.21;31.62;93265.00;5071663;28;20280;-76
2023/06/23 06:53:06;;;;;;;18.17;16.05;;;;;;;36.76;33.92;93251.16;5071821;28;20193;-75
2023/06/23 06:55:32;;;;;;;21.17;18.13;;;;;;;32.23;45.12;93234.03;5071756;28;20256;-76
2023/06/23 06:57:58;;;;;;;23.40;18.15;;;;;;;30.75;49.49;93208.91;5073380;28;20193;-76
2023/06/23 07:00:25;;;;;;;21.35;19.10;;;;;;;30.34;50.92;93226.69;5071296;28;20217;-76
2023/06/23 07:02:52;;;;;;;23.60;19.05;;;;;;;29.64;53.96;93217.41;5072923;28;20205;-76
2023/06/23 07:05:18;;;;;;;24.35;19.08;;;;;;;28.83;56.30;93181.34;5071005;28;20241;-76
2023/06/23 07:07:44;;;;;;;23.17;19.77;;;;;;;28.28;59.03;93204.06;5083597;28;20252;-76
2023/06/23 07:10:10;;;;;;;23.08;18.52;;;;;;;28.24;60.85;93197.88;5071424;28;20240;-76
2023/06/23 07:12:36;;;;;;;27.42;19.75;;;;;;;27.72;61.53;93192.84;5073226;28;20216;-75
2023/06/23 07:15:02;;;;;;;22.55;19.05;;;;;;;27.56;64.38;93185.06;5078695;28;20233;-75
2023/06/23 07:17:27;;;;;;;24.58;19.52;;;;;;;27.79;62.49;93192.91;5059838;28;20270;-76
2023/06/23 07:19:53;;;;;;;21.00;18.88;;;;;;;27.99;62.09;93181.59;5070151;28;20229;-76
2023/06/23 07:22:19;;;;;;;24.70;20.25;;;;;;;27.32;62.59;93184.78;5051975;28;20231;-76
2023/06/23 07:24:44;;;;;;;26.35;19.92;;;;;;;26.47;68.48;93165.03;5069836;28;20252;-76
2023/06/23 07:27:10;;;;;;;21.05;17.90;;;;;;;27.01;65.97;93179.84;5071575;28;20256;-76
2023/06/23 07:29:35;;;;;;;20.42;17.98;;;;;;;27.23;68.45;93186.97;5069773;28;20229;-76
2023/06/23 07:32:01;;;;;;;21.90;16.83;;;;;;;27.00;66.54;93157.63;5072612;28;20188;-76
2023/06/23 07:34:28;;;;;;;20.00;17.90;;;;;;;26.90;68.30;93168.25;5070030;28;20244;-76
2023/06/23 07:36:54;;;;;;;22.67;17.70;;;;;;;27.17;68.06;93194.59;5070739;28;20181;-75
2023/06/23 07:39:19;;;;;;;25.35;19.40;;;;;;;27.23;67.43;93186.97;5081920;28;20192;-75
2023/06/23 07:41:45;;;;;;;21.48;18.40;;;;;;;26.90;66.87;93177.03;5071173;28;20209;-75
2023/06/23 07:44:10;;;;;;;20.10;18.00;;;;;;;27.68;64.85;93187.44;5070673;28;20260;-76
2023/06/23 07:46:35;;;;;;;20.35;18.17;;;;;;;27.42;65.17;93184.13;5072430;28;20197;-75
2023/06/23 07:49:01;;;;;;;19.20;17.20;;;;;;;27.10;68.05;93197.19;5069823;28;20224;-76
2023/06/23 07:51:26;;;;;;;21.40;18.20;;;;;;;26.20;68.53;93184.91;5070707;28;20223;-75
2023/06/23 07:53:52;;;;;;;20.63;17.80;;;;;;;26.91;68.51;93170.56;5065889;28;20188;-69
2023/06/23 07:56:17;;;;;;;23.05;17.90;;;;;;;26.61;70.68;93178.59;5068235;28;20304;-68
2023/06/23 07:58:43;;;;;;;22.77;17.13;;;;;;;26.91;67.47;93183.97;5071979;28;20237;-67
2023/06/23 08:01:09;;;;;;;18.55;16.75;;;;;;;27.49;66.20;93184.97;5067448;28;20228;-68
2023/06/23 08:03:34;;;;;;;19.30;17.30;;;;;;;27.89;64.65;93168.84;5072126;28;20192;-68
2023/06/23 08:06:00;;;;;;;19.17;17.13;;;;;;;27.61;67.71;93184.69;5067639;28;20224;-69
2023/06/23 08:08:25;;;;;;;20.60;18.45;;;;;;;27.13;67.22;93183.03;5049899;28;20193;-69
2023/06/23 08:10:51;;;;;;;22.75;16.90;;;;;;;26.46;70.50;93182.19;5068117;28;20231;-68
2023/06/23 08:13:17;;;;;;;22.27;18.13;;;;;;;27.02;67.00;93178.72;5068192;28;20189;-67
2023/06/23 08:15:43;;;;;;;19.35;16.45;;;;;;;27.69;63.90;93188.22;5068459;28;20228;-68
2023/06/23 08:18:08;;;;;;;23.00;18.77;;;;;;;27.12;66.75;93184.19;5067726;28;20216;-68
2023/06/23 08:20:34;;;;;;;21.27;19.13;;;;;;;27.12;66.67;93186.88;5067203;28;20213;-68
2023/06/23 08:22:59;;;;;;;20.23;18.13;;;;;;;26.93;68.64;93184.34;5065937;28;20217;-68
2023/06/23 08:25:25;;;;;;;21.75;17.20;;;;;;;27.23;66.51;93192.34;5067306;28;20236;-69
2023/06/23 08:27:50;;;;;;;19.13;17.13;;;;;;;27.60;66.17;93182.38;5075373;28;20244;-70
2023/06/23 08:30:16;;;;;;;20.67;18.42;;;;;;;27.66;65.62;93194.34;5067104;28;20218;-69
2023/06/23 08:32:41;;;;;;;23.02;18.67;;;;;;;27.48;64.72;93190.72;5070638;28;20181;-70
2023/06/23 08:35:07;;;;;;;21.40;17.92;;;;;;;27.95;63.87;93190.78;5067663;28;20267;-72
2023/06/23 08:37:32;;;;;;;22.65;19.50;;;;;;;27.53;65.16;93174.28;5064403;28;20241;-71
2023/06/23 08:39:58;;;;;;;25.75;19.95;;;;;;;27.82;64.58;93173.38;5069602;28;20225;-71
2023/06/23 08:42:25;;;;;;;22.20;19.85;;;;;;;27.48;63.99;93183.44;5067583;28;20216;-71
2023/06/23 08:44:51;;;;;;;22.75;19.05;;;;;;;27.12;66.05;93180.72;5067395;28;20240;-71
2023/06/23 08:47:19;;;;;;;22.20;19.92;;;;;;;27.15;65.06;93175.41;5067704;28;20213;-71
2023/06/23 08:49:48;;;;;;;23.08;19.10;;;;;;;28.02;62.90;93177.38;5066944;28;20225;-71
2023/06/23 08:52:14;;;;;;;20.58;18.48;;;;;;;28.52;61.35;93184.66;5059197;28;20195;-72
2023/06/23 08:54:40;;;;;;;20.38;18.17;;;;;;;28.19;61.93;93177.53;5070878;28;20217;-71
2023/06/23 08:57:07;;;;;;;20.35;17.58;;;;;;;28.07;61.52;93179.72;5071255;28;20213;-72
2023/06/23 08:59:33;;;;;;;20.35;18.10;;;;;;;28.31;60.59;93178.34;5070724;28;20240;-71
2023/06/23 09:01:58;;;;;;;22.05;18.20;;;;;;;28.39;59.29;93166.50;5077728;28;20227;-71
2023/06/23 09:04:24;;;;;;;25.00;17.65;;;;;;;28.09;61.06;93172.09;5070359;28;20240;-72
2023/06/23 09:06:49;;;;;;;19.95;17.95;;;;;;;28.63;58.65;93166.66;5072130;28;20209;-71
2023/06/23 09:09:15;;;;;;;20.67;18.52;;;;;;;28.68;57.33;93169.00;5070901;28;20224;-71
2023/06/23 09:11:43;;;;;;;19.17;17.23;;;;;;;28.12;61.51;93164.06;5071258;28;20231;-71
2023/06/23 09:14:10;;;;;;;19.80;17.75;;;;;;;28.54;58.80;93165.47;5070245;28;20209;-72
2023/06/23 09:16:36;;;;;;;19.20;17.23;;;;;;;28.43;58.11;93129.69;5071406;28;20181;-72
2023/06/23 09:19:02;;;;;;;22.60;17.30;;;;;;;27.92;59.63;93164.66;5070472;28;20200;-71
2023/06/23 09:21:28;;;;;;;20.13;16.60;;;;;;;27.11;60.38;93141.66;5070645;28;20221;-69
2023/06/23 09:24:01;;;;;;;21.55;17.48;;;;;;;28.44;59.03;93158.84;5070796;28;20186;-70
2023/06/23 09:26:26;;;;;;;22.42;17.50;;;;;;;28.93;57.32;93161.81;5070406;28;20217;-71
2023/06/23 09:28:52;;;;;;;19.30;15.52;;;;;;;28.93;57.04;93159.13;5070105;28;20188;-71
2023/06/23 09:31:18;;;;;;;16.60;14.88;;;;;;;29.21;54.15;93153.09;5070566;28;20236;-71
2023/06/23 09:33:52;;;;;;;20.20;15.20;;;;;;;29.15;52.52;93157.28;5069503;28;20184;-70
2023/06/23 09:36:18;;;;;;;17.20;15.23;;;;;;;29.18;53.73;93160.00;5066428;28;20988;-70
2023/06/23 09:38:44;;;;;;;17.60;14.48;;;;;;;29.23;53.55;93161.53;5070992;28;20169;-71
2023/06/23 09:41:15;;;;;;;17.25;15.45;;;;;;;29.17;53.54;93161.13;5072121;28;20212;-70
2023/06/23 09:43:45;;;;;;;17.60;14.35;;;;;;;29.45;53.75;93163.09;5070695;28;20185;-72
2023/06/23 09:46:15;;;;;;;15.85;13.80;;;;;;;29.38;50.76;93161.19;5052330;28;20214;-71
2023/06/23 09:48:43;;;;;;;15.13;13.57;;;;;;;28.77;49.66;93147.91;5064327;28;20237;-72
2023/06/23 09:51:09;;;;;;;15.50;13.90;;;;;;;29.11;50.17;93165.34;5076420;28;20236;-69
2023/06/23 09:53:39;;;;;;;20.38;14.30;;;;;;;29.14;48.68;93164.59;5070977;28;20269;-69
2023/06/23 09:56:07;;;;;;;16.15;14.45;;;;;;;29.15;52.18;93155.34;5066280;28;20222;-71
2023/06/23 09:58:37;;;;;;;15.32;13.60;;;;;;;29.31;52.52;93153.09;5070600;28;20184;-71
2023/06/23 10:01:06;;;;;;;14.70;13.43;;;;;;;29.52;52.13;93161.22;5074947;28;20225;-70
2023/06/23 10:03:32;;;;;;;17.17;14.45;;;;;;;29.39;51.71;93153.88;5065509;28;20198;-70
2023/06/23 10:05:58;;;;;;;15.63;14.05;;;;;;;29.14;52.40;93158.44;5081088;28;20230;-70
2023/06/23 10:08:27;;;;;;;19.48;14.05;;;;;;;29.43;49.56;93152.72;5071257;28;20181;-70
2023/06/23 10:10:53;;;;;;;16.38;14.77;;;;;;;29.03;51.06;93153.00;5076529;28;20239;-71
2023/06/23 10:13:20;;;;;;;18.50;14.95;;;;;;;28.95;52.36;93137.97;5077535;28;20203;-70
2023/06/23 10:15:46;;;;;;;15.25;13.77;;;;;;;29.26;48.70;93123.88;5070347;28;20217;-74
2023/06/23 10:18:12;;;;;;;14.85;13.40;;;;;;;29.48;49.32;93152.34;5079832;28;20219;-74
2023/06/23 10:20:38;;;;;;;15.10;13.27;;;;;;;29.10;51.76;93147.69;5077678;28;20225;-74
2023/06/23 10:23:04;;;;;;;14.52;13.13;;;;;;;29.55;50.16;93144.31;5065095;28;20292;-74
2023/06/23 10:25:33;;;;;;;15.40;13.82;;;;;;;29.37;48.45;93140.81;5073212;28;20236;-73
2023/06/23 10:28:08;;;;;;;14.25;12.75;;;;;;;29.54;50.59;93134.66;5091186;28;20189;-72
2023/06/23 10:30:34;;;;;;;16.95;13.27;;;;;;;29.05;52.64;93133.78;5071040;28;20233;-72
2023/06/23 10:33:02;;;;;;;15.02;13.20;;;;;;;28.19;51.41;93117.66;5074120;28;20196;-73
2023/06/23 10:35:30;;;;;;;16.08;13.43;;;;;;;28.80;52.45;93122.19;5083972;28;20221;-72
2023/06/23 10:38:03;;;;;;;14.68;13.15;;;;;;;28.95;48.88;93119.16;5083118;28;20184;-72
2023/06/23 10:40:38;;;;;;;17.98;13.65;;;;;;;28.65;54.57;93121.38;5065639;28;20255;-73
2023/06/23 10:43:05;;;;;;;13.82;12.45;;;;;;;28.94;50.88;93128.38;5083754;28;20238;-72
2023/06/23 10:45:31;;;;;;;15.77;13.48;;;;;;;29.45;49.34;93128.91;5081955;28;20233;-72
2023/06/23 10:47:57;;;;;;;15.68;12.98;;;;;;;29.55;49.75;93130.84;5076490;28;20215;-72
2023/06/23 10:50:23;;;;;;;18.55;13.63;;;;;;;29.14;52.49;93126.94;5070600;28;20243;-72
2023/06/23 10:52:49;;;;;;;14.50;13.10;;;;;;;29.25;52.35;93113.50;5080420;28;20178;-72
2023/06/23 10:55:40;;;;;;;16.35;14.60;;;;;;;29.25;50.80;93111.59;5074387;28;21752;-73
2023/06/23 10:58:18;;;;;;;15.07;13.43;;;;;;;29.56;50.92;93116.22;5052533;28;20201;-72
2023/06/23 11:00:53;;;;;;;16.33;14.30;;;;;;;29.39;51.25;93114.28;5077995;28;20229;-72
2023/06/23 11:03:29;;;;;;;21.63;14.68;;;;;;;29.20;51.98;93109.25;5079786;28;20248;-73
2023/06/23 11:05:56;;;;;;;16.13;13.70;;;;;;;29.23;52.08;93108.50;5073088;28;20239;-72
2023/06/23 11:08:31;;;;;;;22.70;14.50;;;;;;;29.64;55.31;93090.09;5081721;28;20237;-74
2023/06/23 11:10:59;;;;;;;22.83;14.38;;;;;;;30.00;52.30;93099.69;5077560;28;20277;-73
2023/06/23 11:13:32;;;;;;;16.52;14.73;;;;;;;29.83;50.15;93088.94;5076567;28;20205;-72
2023/06/23 11:15:59;;;;;;;16.25;14.45;;;;;;;29.76;51.60;93091.66;5070117;28;20214;-73
2023/06/23 11:18:26;;;;;;;17.10;14.70;;;;;;;29.95;51.11;93091.25;5071607;28;20231;-72
2023/06/23 11:20:51;;;;;;;20.10;14.40;;;;;;;29.77;51.77;93080.50;5076094;28;20228;-72
2023/06/23 11:23:17;;;;;;;15.35;13.80;;;;;;;29.56;52.64;93077.75;5072428;28;20220;-72